Holliday, Texas
Current Conditions -  °F | °C
As of 7:55 PM on Monday 24 Nov 2014 (Local Time) from KCWC Reporting Station
Clear Clear  
Wind Chill: 51°   Ceiling: Unl
Heat Index: 51°   Visibility: 10mi
Dew Point: 23°   Wind: 5mph
Humidity: 33%   Direction: 240°WSW
Pressure: 30.11"   Gusts: NA
Location:  33.82°N, 98.7°W
Report Text: KCWC 250155Z AUTO 24004KT 10SM CLR 11/M05 A3011 RMK AO2 T01071049
Loading
Personal Weather Stations






























Interactive Weather Map New forecast layout! Learn more

10-Day Weather Forecast

Advertisements
Track Severe Weather on mobile